Tiempo atmosférico en la estación meteorológica de Machichaco, Bizkaia (93 m.)



Fecha
DESCASC
Temp. máxima en grados centígrados (hora)
DESCASC
Temp. mínima en grados centígrados (hora)
DESCASC
Temp. media en grados centígrados
DESCASC
Racha de viento máxima en m/sg (hora)
DESCASC
Velocidad máxima media en intervalos de 10 minutos(hora)
DESCASC
Precipitaciones diarias en mm
DESCASC
Precipitaciones de 00:00 a 06:00 en mm
DESCASC
Precipitaciones de 06:00 a 12:00 en mm
DESCASC
Precipitaciones de 12:00 a 18:00 en mm
DESCASC
Precipitaciones de 18:00 a 24:00 en mm
DESCASC
06-07-2020 19.3 (00:00) 16.2 (23:59) 17.8 10 (03:50) 7.22 (00:30) 5.4 5.2 0.2 0 0
05-07-2020 23 (18:00) 16.4 (01:30) 19.7 8.06 (23:50) 6.67 (23:59) 0 0 0 0 0
04-07-2020 21.5 (17:10) 14.3 (06:00) 17.9 6.94 (14:40) 5.56 (14:20) 0 0 0 0 0
03-07-2020 20.4 (14:10) 15.1 (23:30) 17.8 13.33 (00:20) 10.83 (00:20) 0 0 0 0 0
02-07-2020 18 (00:00) 15.1 (00:00) 16.6 13.89 (20:10) 10.83 (14:20) 3 0.2 2.8 0 0
01-07-2020 20.9 (14:50) 17.4 (00:00) 19.1 12.5 (22:40) 9.17 (22:40) 0 0 0 0 0
30-06-2020 21.8 (14:20) 15.2 (00:00) 18.5 8.33 (15:20) 6.67 (15:10) 0 0 0 0 0
29-06-2020 20.1 (16:00) 16.5 (00:00) 18.3 10.83 (01:30) 8.89 (01:30) 0 0 0 0 0
28-06-2020 23.1 (17:40) 17.4 (00:00) 20.3 11.67 (23:10) 9.72 (23:10) 0 0 0 0 0
27-06-2020 23.8 (14:30) 15.6 (00:00) 19.7 9.17 (23:50) 8.06 (23:50) 0 0 0 0 0
26-06-2020 19.1 (15:10) 16 (00:00) 17.6 11.67 (00:20) 9.44 (00:20) 1.6 0.2 1.4 0 0
25-06-2020 19.9 (12:30) 17.1 (00:00) 18.5 16.94 (10:10) 13.61 (10:10) 1.4 0 0 0.4 1
24-06-2020 21.8 (06:10) 18.2 (00:00) 20 17.78 (20:50) 14.72 (20:50) 0 0 0 0 0
23-06-2020 23.6 (21:20) 17.5 (00:00) 20.6 11.11 (15:50) 7.22 (19:30) 0 0 0 0 0
22-06-2020 20.9 (14:00) 16.7 (00:00) 18.8 9.72 (21:30) 8.06 (21:50) 0 0 0 0 0
21-06-2020 21.7 (19:50) 14.7 (00:00) 18.2 7.5 (15:20) 6.11 (15:20) 0 0 0 0 0
20-06-2020 19.9 (16:20) 14.2 (00:00) 17 8.06 (17:50) 6.67 (15:50) 0 0 0 0 0
19-06-2020 19.5 (16:10) 13.6 (00:00) 16.6 4.17 (18:10) 3.06 (13:40) 0 0 0 0 0
18-06-2020 18.7 (17:30) 13 (00:00) 15.9 10.28 (03:10) 8.06 (03:00) 6 5.8 0.2 0 0
17-06-2020 16.9 (17:30) 13.9 (00:00) 15.4 16.39 (09:20) 13.61 (12:50) 4.4 1.6 2.8 0 0
16-06-2020 18.7 (10:50) 13.8 (00:00) 16.3 17.5 (18:00) 13.61 (18:00) 1.4 0.6 0 0.6 0.2
15-06-2020 20.6 (16:50) 14.5 (00:00) 17.6 12.22 (21:40) 10.28 (21:40) 0.6 0 0.2 0 0.4
14-06-2020 20.1 (14:30) 14.5 (00:00) 17.3 9.17 (16:50) 7.78 (16:50) 0 0 0 0 0
13-06-2020 20.1 (14:40) 13.4 (00:00) 16.8 10.83 (07:30) 7.78 (17:20) 1.2 0.2 0.2 0.6 0.2
12-06-2020 16.8 (10:50) 10.3 (00:00) 13.5 24.17 (17:20) 18.33 (17:20) 4.8 0 0 4.8 0
11-06-2020 20.1 (12:10) 10.5 (00:00) 15.3 22.78 (14:50) 18.33 (14:30) 12.4 0 0.4 5.8 6.2

Gráficas

Temp. máximas Temp. mínimas Temp. medias Precipitaciones Rachas de viento máximas Velocidades máximas media en intervalos de 10 minutos

Datos horarios

Fecha y hora oficial Temperatura (ºC) Velocidad del viento (km/h) Dirección del viento Racha (km/h) Dirección de racha Precipitación (mm) Presión (hPa) Tendencia (hPa) Humedad (%)
2020-07-10 23:00:00 18.7 22 Oeste 30 Oeste 0 -- -- 80
2020-07-10 22:00:00 18.8 19 Oeste 26 Oeste 0 -- -- 82
2020-07-10 21:00:00 18.8 15 Noroeste 25 Noroeste 0 -- -- 83
2020-07-10 20:00:00 18.9 15 Noroeste 22 Noroeste 0 -- -- 82
2020-07-10 19:00:00 18.9 13 Noroeste 18 Noroeste 0 -- -- 84
2020-07-10 18:00:00 18.9 12 Noroeste 18 Norte 0.2 -- -- 88
2020-07-10 17:00:00 19.9 11 Noroeste 19 Noroeste 0 -- -- 84
2020-07-10 16:00:00 19.1 14 Noroeste 29 Oeste 0 -- -- 88
2020-07-10 15:00:00 18.9 24 Noroeste 37 Oeste 0 -- -- 87
2020-07-10 14:00:00 20.8 18 Oeste 27 Oeste 0 -- -- 74
2020-07-10 13:00:00 20.2 19 Oeste 27 Oeste 0 -- -- 73
2020-07-10 12:00:00 19.9 22 Oeste 29 Oeste 0 -- -- 78
2020-07-10 11:00:00 19.1 20 Oeste 31 Oeste 0 -- -- 87
2020-07-10 10:00:00 19.4 15 Oeste 19 Oeste 0 -- -- 82
2020-07-10 09:00:00 18.9 12 Noroeste 20 Noroeste 0 -- -- 83
2020-07-10 08:00:00 19 12 Noroeste 19 Noroeste 0 -- -- 87
2020-07-10 07:00:00 18.6 8 Noroeste 13 Noroeste 0 -- -- 88
2020-07-10 06:00:00 19 12 Noroeste 26 Noroeste 0 -- -- 88
2020-07-10 05:00:00 19.1 16 Oeste 23 Noroeste 0 -- -- 87
2020-07-10 04:00:00 18.7 15 Oeste 25 Oeste 0 -- -- 91
2020-07-10 03:00:00 18.4 9 Sudoeste 23 Oeste 0 -- -- 90
2020-07-10 02:00:00 18.6 10 Sudoeste 31 Oeste 0 -- -- 89
2020-07-10 01:00:00 19.3 27 Oeste 32 Oeste 0 -- -- 87
2020-07-10 00:00:00 19.3 19 Oeste 31 Oeste 0 -- -- 88
2020-07-09 23:00:00 19.4 20 Oeste 30 Noroeste 0 -- -- 88
2020-07-09 22:00:00 19.6 21 Noroeste 30 Noroeste 0 -- -- 88
2020-07-09 21:00:00 20 21 Oeste 29 Oeste 0 -- -- 88
2020-07-09 20:00:00 20.9 20 Oeste 29 Oeste 0 -- -- 86
2020-07-09 19:00:00 20.6 24 Oeste 34 Oeste 0 -- -- 88
2020-07-09 18:00:00 21.2 27 Oeste 35 Oeste 0 -- -- 84
2020-07-09 17:00:00 21.5 30 Oeste 34 Oeste 0 -- -- 83
2020-07-09 16:00:00 21.5 28 Oeste 35 Oeste 0 -- -- 82
2020-07-09 15:00:00 21.3 28 Oeste 35 Oeste 0 -- -- 82
2020-07-09 14:00:00 21.1 33 Oeste 38 Oeste 0 -- -- 82
2020-07-09 13:00:00 21.1 27 Oeste 35 Oeste 0 -- -- 85
2020-07-09 12:00:00 20.8 27 Oeste 39 Oeste 0 -- -- 86
2020-07-09 11:00:00 20.5 28 Oeste 42 Oeste 0 -- -- 88
2020-07-09 10:00:00 19.8 36 Oeste 47 Oeste 0 -- -- 90
2020-07-09 09:00:00 19.5 32 Oeste 42 Oeste 0 -- -- 91
2020-07-09 08:00:00 19.1 27 Oeste 42 Oeste 0 -- -- 92
2020-07-09 07:00:00 19 24 Oeste 34 Oeste 0 -- -- 91
2020-07-09 06:00:00 19.1 16 Oeste 23 Oeste 0 -- -- 90
2020-07-09 05:00:00 19 12 Oeste 20 Oeste 0 -- -- 89
2020-07-09 04:00:00 19.3 13 Oeste 18 Sudoeste 0 -- -- 87
2020-07-09 03:00:00 19.6 13 Oeste 24 Oeste 0 -- -- 85
2020-07-09 02:00:00 19.7 17 Oeste 24 Oeste 0 -- -- 85
2020-07-09 01:00:00 19.7 15 Oeste 21 Oeste 0 -- -- 85
2020-07-09 00:00:00 19.9 18 Oeste 24 Oeste 0 -- -- 84
2020-07-08 23:00:00 19.3 8 Oeste 12 Oeste 0 -- -- 86
2020-07-08 22:00:00 19.9 5 Sudoeste 10 Oeste 0 -- -- 82
2020-07-08 21:00:00 22.3 6 Oeste 12 Sudeste 0 -- -- 73
2020-07-08 20:00:00 22.7 9 Sudeste 16 Sudeste 0 -- -- 70
2020-07-08 19:00:00 22.7 12 Este 20 Este 0 -- -- 71
2020-07-08 18:00:00 23.1 10 Este 18 Este 0 -- -- 71
2020-07-08 17:00:00 22.9 13 Este 23 Este 0 -- -- 74
2020-07-08 16:00:00 22.3 19 Este 26 Este 0 -- -- 74
2020-07-08 15:00:00 22.5 19 Este 29 Este 0 -- -- 79
2020-07-08 14:00:00 22.3 23 Este 29 Este 0 -- -- 79
2020-07-08 13:00:00 22.3 17 Este 28 Este 0 -- -- 75
2020-07-08 12:00:00 21.8 21 Este 27 Este 0 -- -- 78
2020-07-08 11:00:00 21.8 15 Este 22 Este 0 -- -- 75
2020-07-08 10:00:00 21.8 9 Este 13 Este 0 -- -- 79
2020-07-08 09:00:00 20.9 9 Este 12 Este 0 -- -- 79
2020-07-08 08:00:00 19.7 8 Este 12 Este 0 -- -- 84
2020-07-08 07:00:00 17 6 Este 9 Este 0 -- -- 93
2020-07-08 06:00:00 16.7 3 Este 4 Este 0 -- -- 93
2020-07-08 05:00:00 17 0 Calma 5 Sudeste 0 -- -- 91
2020-07-08 04:00:00 17.8 3 Sudeste 10 Sudeste 0 -- -- 87
2020-07-08 03:00:00 18.2 7 Sudeste 18 Este 0 -- -- 86
2020-07-08 02:00:00 18.6 12 Este 27 Este 0 -- -- 85
2020-07-08 01:00:00 19 22 Este 31 Este 0 -- -- 84
2020-07-08 00:00:00 19.2 23 Este 36 Este 0 -- -- 82
2020-07-07 23:00:00 19.3 30 Este 36 Este 0 -- -- 78
2020-07-07 22:00:00 19.4 27 Este 35 Nordeste 0 -- -- 75
2020-07-07 21:00:00 20 27 Este 35 Este 0 -- -- 70
2020-07-07 20:00:00 20.4 27 Este 33 Este 0 -- -- 66
2020-07-07 19:00:00 20.4 23 Este 29 Este 0 -- -- 72
2020-07-07 18:00:00 20.7 19 Este 25 Este 0 -- -- 73
2020-07-07 17:00:00 21.1 15 Este 21 Este 0 -- -- 73
2020-07-07 16:00:00 21.1 15 Este 23 Este 0 -- -- 73
2020-07-07 15:00:00 20.8 12 Este 18 Este 0 -- -- 70
2020-07-07 14:00:00 20.8 12 Este 17 Este 0 -- -- 68
2020-07-07 13:00:00 19.7 10 Este 14 Este 0 -- -- 68
2020-07-07 12:00:00 20.4 9 Este 14 Este 0 -- -- 64
2020-07-07 11:00:00 20.1 6 Este 14 Este 0 -- -- 62
2020-07-07 10:00:00 19.2 5 Este 11 Este 0 -- -- 66
2020-07-07 09:00:00 18.2 4 Este 9 Este 0 -- -- 69
2020-07-07 08:00:00 18.1 3 Nordeste 10 Este 0 -- -- 68
2020-07-07 07:00:00 15.2 4 Sudeste 14 Norte 0 -- -- 79
2020-07-07 06:00:00 16.4 10 Nordeste 19 Norte 0 -- -- 73
2020-07-07 05:00:00 16 3 Nordeste 13 Este 0 -- -- 73
2020-07-07 04:00:00 16.3 10 Este 16 Este 0 -- -- 70
2020-07-07 03:00:00 16.6 10 Nordeste 20 Nordeste 0 -- -- 69
2020-07-07 02:00:00 16.7 11 Nordeste 17 Norte 0 -- -- 72
2020-07-07 01:00:00 16.9 9 Norte 21 Nordeste 0 -- -- 72
2020-07-07 00:00:00 16.2 2 Este 12 Norte 0 -- -- 77
2020-07-06 23:00:00 17 4 Norte 17 Nordeste 0 -- -- 70
2020-07-06 22:00:00 16.9 4 Noroeste 17 Nordeste 0 -- -- 73
2020-07-06 21:00:00 17.5 7 Nordeste 14 Norte 0 -- -- 72
2020-07-06 20:00:00 17.8 6 Nordeste 17 Nordeste 0 -- -- 75
2020-07-06 19:00:00 18.4 9 Nordeste 18 Nordeste 0 -- -- 74
2020-07-06 18:00:00 18.3 9 Nordeste 17 Norte 0 -- -- 77
2020-07-06 17:00:00 18.5 10 Nordeste 19 Norte 0 -- -- 75
2020-07-06 16:00:00 18.2 10 Nordeste 22 Nordeste 0 -- -- 77
2020-07-06 15:00:00 18.1 13 Nordeste 21 Nordeste 0 -- -- 79
2020-07-06 14:00:00 17.7 16 Nordeste 26 Nordeste 0 -- -- 83
2020-07-06 13:00:00 18 17 Nordeste 32 Nordeste 0 -- -- 83
2020-07-06 12:00:00 18 18 Nordeste 27 Nordeste 0 -- -- 88
2020-07-06 11:00:00 17.6 9 Norte 23 Norte 0 -- -- 97
2020-07-06 10:00:00 18.1 8 Norte 23 Nordeste 0 -- -- 96
2020-07-06 09:00:00 18.3 6 Noroeste 17 Noroeste 0 -- -- 94
2020-07-06 08:00:00 17.9 7 Norte 20 Noroeste 0 -- -- 98
2020-07-06 07:00:00 17.6 12 Noroeste 21 Noroeste 0.2 -- -- 100
2020-07-06 06:00:00 17.5 12 Noroeste 24 Noroeste 0.2 -- -- 100
2020-07-06 05:00:00 17.8 15 Noroeste 33 Oeste 2.2 -- -- 100
2020-07-06 04:00:00 18 22 Oeste 36 Oeste 1.6 -- -- 99
2020-07-06 03:00:00 18 18 Oeste 30 Oeste 1.2 -- -- 99
2020-07-06 02:00:00 18.3 19 Oeste 30 Oeste 0 -- -- 97
2020-07-06 01:00:00 19.1 21 Oeste 32 Sudoeste 0 -- -- 91
2020-07-06 00:00:00 19.3 24 Oeste 29 Oeste 0 -- -- 88
2020-07-05 23:00:00 19.4 17 Oeste 21 Oeste 0 -- -- 87
2020-07-05 22:00:00 19.5 13 Noroeste 15 Noroeste 0 -- -- 84
2020-07-05 21:00:00 20.6 12 Noroeste 15 Noroeste 0 -- -- 80
2020-07-05 20:00:00 22.3 13 Noroeste 16 Noroeste 0 -- -- 76
2020-07-05 19:00:00 21.9 13 Oeste 15 Oeste 0 -- -- 67
2020-07-05 18:00:00 23 5 Noroeste 10 Nordeste 0 -- -- 68
2020-07-05 17:00:00 22.4 8 Nordeste 13 Este 0 -- -- 72
2020-07-05 16:00:00 22.4 11 Nordeste 16 Este 0 -- -- 73
2020-07-05 15:00:00 22.3 10 Este 13 Nordeste 0 -- -- 68
2020-07-05 14:00:00 22.1 10 Nordeste 13 Nordeste 0 -- -- 64
2020-07-05 13:00:00 22 9 Nordeste 13 Este 0 -- -- 70
2020-07-05 12:00:00 21.8 6 Nordeste 10 Nordeste 0 -- -- 71
2020-07-05 11:00:00 21.6 5 Nordeste 10 Nordeste 0 -- -- 67
2020-07-05 10:00:00 21.2 3 Norte 8 Nordeste 0 -- -- 75
2020-07-05 09:00:00 20.8 2 Norte 5 Norte 0 -- -- 76
2020-07-05 08:00:00 20 0 Calma 2 Noroeste 0 -- -- 79
2020-07-05 07:00:00 17.3 0 Calma 0 Calma 0 -- -- 91
2020-07-05 06:00:00 16.9 0 Calma 4 Oeste 0 -- -- 89
2020-07-05 05:00:00 17 2 Sudoeste 4 Oeste 0 -- -- 85
2020-07-05 04:00:00 16.7 0 Calma 4 Noroeste 0 -- -- 75
2020-07-05 03:00:00 16.8 2 Oeste 5 Noroeste 0 -- -- 73
2020-07-05 02:00:00 16.9 0 Calma 9 Sudoeste 0 -- -- 70
2020-07-05 01:00:00 16.6 5 Sudoeste 6 Sudoeste 0 -- -- 78
2020-07-05 00:00:00 17.5 0 Calma 8 Sudeste 0 -- -- 78
2020-07-04 23:00:00 17.3 5 Sudeste 11 Sudeste 0 -- -- 80
2020-07-04 22:00:00 18 7 Sudeste 13 Sudeste 0 -- -- 78
2020-07-04 21:00:00 20.1 9 Sudeste 15 Sudeste 0 -- -- 71
2020-07-04 20:00:00 21.1 10 Este 17 Este 0 -- -- 68
2020-07-04 19:00:00 21.2 13 Este 20 Este 0 -- -- 66
2020-07-04 18:00:00 21.4 13 Este 19 Este 0 -- -- 65
2020-07-04 17:00:00 21.4 13 Este 19 Este 0 -- -- 67
2020-07-04 16:00:00 21.2 15 Este 24 Este 0 -- -- 66
2020-07-04 15:00:00 21.2 18 Este 25 Este 0 -- -- 68
2020-07-04 14:00:00 21.2 18 Este 23 Este 0 -- -- 64
2020-07-04 13:00:00 20.8 15 Este 19 Este 0 -- -- 65
2020-07-04 12:00:00 20.5 15 Este 19 Este 0 -- -- 67
2020-07-04 11:00:00 20.2 13 Este 19 Este 0 -- -- 68
2020-07-04 10:00:00 20 6 Este 11 Nordeste 0 -- -- 61
2020-07-04 09:00:00 19.3 3 Este 10 Sudeste 0 -- -- 67
2020-07-04 08:00:00 18.5 5 Sudeste 9 Sudeste 0 -- -- 75
2020-07-04 07:00:00 15.4 8 Sudeste 12 Sudeste 0 -- -- 79
2020-07-04 06:00:00 14.3 3 Sudeste 10 Sudeste 0 -- -- 83
2020-07-04 05:00:00 15.3 8 Sudeste 12 Sudeste 0 -- -- 80
2020-07-04 04:00:00 15.1 6 Sudeste 10 Sudeste 0 -- -- 81
2020-07-04 03:00:00 15 6 Sudeste 8 Sudeste 0 -- -- 82
2020-07-04 02:00:00 14.7 4 Sudeste 6 Este 0 -- -- 83
2020-07-04 01:00:00 15.1 5 Sudeste 7 Este 0 -- -- 83
2020-07-04 00:00:00 15.1 4 Este 9 Este 0 -- -- 82
2020-07-03 23:00:00 15.5 7 Este 12 Este 0 -- -- 79
2020-07-03 22:00:00 16.6 6 Este 14 Nordeste 0 -- -- 76
2020-07-03 21:00:00 18.7 9 Este 14 Nordeste 0 -- -- 71
2020-07-03 20:00:00 18.6 9 Nordeste 15 Nordeste 0 -- -- 71
2020-07-03 19:00:00 19.7 9 Este 13 Nordeste 0 -- -- 68
2020-07-03 18:00:00 19.8 9 Este 13 Nordeste 0 -- -- 66
2020-07-03 17:00:00 19.9 7 Nordeste 13 Nordeste 0 -- -- 65
2020-07-03 16:00:00 19.4 9 Nordeste 14 Norte 0 -- -- 68
2020-07-03 15:00:00 19.7 6 Norte 11 Nordeste 0 -- -- 68
2020-07-03 14:00:00 20 5 Noroeste 14 Noroeste 0 -- -- 69
2020-07-03 13:00:00 17.9 12 Noroeste 34 Oeste 0 -- -- 78
2020-07-03 12:00:00 17.1 28 Oeste 35 Oeste 0 -- -- 83
2020-07-03 11:00:00 17 28 Oeste 33 Oeste 0 -- -- 82
2020-07-03 10:00:00 17 24 Oeste 34 Oeste 0 -- -- 81
2020-07-03 09:00:00 16.6 27 Oeste 39 Oeste 0 -- -- 81
2020-07-03 08:00:00 16.6 24 Oeste 32 Oeste 0 -- -- 83
2020-07-03 07:00:00 16.4 23 Oeste 34 Oeste 0 -- -- 86
2020-07-03 06:00:00 15.9 17 Oeste 38 Oeste 0 -- -- 89
2020-07-03 05:00:00 16.9 25 Oeste 33 Oeste 0 -- -- 83
2020-07-03 04:00:00 16.9 24 Noroeste 33 Noroeste 0 -- -- 75
2020-07-03 03:00:00 17 25 Noroeste 35 Noroeste 0 -- -- 76
2020-07-03 02:00:00 17 28 Oeste 48 Oeste 0 -- -- 80
2020-07-03 01:00:00 16.6 35 Oeste 48 Oeste 0 -- -- 88
2020-07-03 00:00:00 16.8 34 Oeste 44 Oeste 0 -- -- 87
2020-07-02 23:00:00 16.5 30 Oeste 41 Oeste 0 -- -- 88
2020-07-02 22:00:00 16.1 23 Oeste 39 Oeste 0 -- -- 88
2020-07-02 21:00:00 15.2 19 Oeste 50 Oeste 0 -- -- 91
2020-07-02 20:00:00 17.1 36 Oeste 47 Oeste 0 -- -- 84
2020-07-02 19:00:00 17.3 37 Oeste 48 Oeste 0 -- -- 85
2020-07-02 18:00:00 17.4 34 Oeste 45 Oeste 0 -- -- 83
2020-07-02 17:00:00 17.5 32 Oeste 43 Oeste 0 -- -- 85
2020-07-02 16:00:00 17.7 30 Oeste 41 Oeste 0 -- -- 82
2020-07-02 15:00:00 17.3 35 Oeste 46 Oeste 0 -- -- 86
2020-07-02 14:00:00 17.4 26 Oeste 37 Oeste 0 -- -- 81
2020-07-02 13:00:00 16.9 30 Oeste 39 Oeste 0 -- -- 90
2020-07-02 12:00:00 15.7 18 Oeste 31 Oeste 0.4 -- -- 98
2020-07-02 11:00:00 15.5 21 Oeste 27 Noroeste 0.4 -- -- 99
2020-07-02 10:00:00 15.5 10 Oeste 24 Noroeste 1.2 -- -- 99
2020-07-02 09:00:00 15.4 12 Oeste 26 Oeste 0.4 -- -- 98
2020-07-02 08:00:00 15.3 12 Sudoeste 26 Oeste 0.2 -- -- 98
2020-07-02 07:00:00 15.5 17 Oeste 26 Oeste 0.2 -- -- 98
2020-07-02 06:00:00 15.9 16 Oeste 31 Oeste 0 -- -- 96
2020-07-02 05:00:00 16.4 15 Sudoeste 32 Oeste 0.2 -- -- 93
2020-07-02 04:00:00 17.4 16 Oeste 29 Oeste 0 -- -- 89
2020-07-02 03:00:00 17.8 21 Oeste 28 Oeste 0 -- -- 80
2020-07-02 02:00:00 17.9 24 Oeste 35 Oeste 0 -- -- 80
2020-07-02 01:00:00 17.6 25 Oeste 35 Oeste 0 -- -- 85
2020-07-02 00:00:00 18 28 Oeste 38 Oeste 0 -- -- 84
2020-07-01 23:00:00 17.6 29 Oeste 45 Oeste 0 -- -- 85
2020-07-01 22:00:00 18.2 30 Oeste 38 Oeste 0 -- -- 87
2020-07-01 21:00:00 18.2 24 Noroeste 31 Noroeste 0 -- -- 92
2020-07-01 20:00:00 18.5 7 Oeste 30 Oeste 0 -- -- 94
2020-07-01 19:00:00 19.6 17 Oeste 22 Oeste 0 -- -- 91
2020-07-01 18:00:00 20 14 Noroeste 21 Noroeste 0 -- -- 88
2020-07-01 17:00:00 20 17 Noroeste 26 Oeste 0 -- -- 90
2020-07-01 16:00:00 20.6 23 Oeste 27 Oeste 0 -- -- 88
2020-07-01 15:00:00 20.9 21 Oeste 29 Oeste 0 -- -- 87
2020-07-01 14:00:00 20.3 22 Oeste 28 Oeste 0 -- -- 83
2020-07-01 13:00:00 19.9 18 Oeste 28 Oeste 0 -- -- 88
2020-07-01 12:00:00 19.7 19 Oeste 28 Oeste 0 -- -- 89
2020-07-01 11:00:00 19.9 18 Oeste 24 Oeste 0 -- -- 88
2020-07-01 10:00:00 20 13 Oeste 18 Oeste 0 -- -- 87
2020-07-01 09:00:00 19 15 Oeste 19 Oeste 0 -- -- 90
2020-07-01 08:00:00 18.6 6 Oeste 10 Oeste 0 -- -- 93
2020-07-01 07:00:00 18.3 8 Sudoeste 14 Oeste 0 -- -- 94
2020-07-01 06:00:00 18.3 10 Oeste 15 Oeste 0 -- -- 94
2020-07-01 05:00:00 17.8 6 Sudoeste 13 Oeste 0 -- -- 94
2020-07-01 04:00:00 17.9 7 Oeste 12 Sudoeste 0 -- -- 93
2020-07-01 03:00:00 17.8 7 Sudoeste 10 Oeste 0 -- -- 93
2020-07-01 02:00:00 17.9 4 Este 7 Este 0 -- -- 91
2020-07-01 01:00:00 18.8 3 Oeste 10 Sudoeste 0 -- -- 89
2020-07-01 00:00:00 18.5 4 Sudoeste 8 Este 0 -- -- 90
2020-06-30 23:00:00 18.4 6 Este 14 Este 0 -- -- 88
2020-06-30 22:00:00 19.2 13 Este 22 Este 0 -- -- 85
2020-06-30 21:00:00 19.8 15 Este 22 Este 0 -- -- 82
2020-06-30 20:00:00 21.1 18 Este 26 Este 0 -- -- 79
2020-06-30 19:00:00 21.4 20 Este 26 Este 0 -- -- 75
2020-06-30 18:00:00 21.6 19 Este 27 Este 0 -- -- 76
2020-06-30 17:00:00 21.6 21 Este 28 Este 0 -- -- 76
2020-06-30 16:00:00 21.5 23 Este 30 Este 0 -- -- 76
2020-06-30 15:00:00 21.7 21 Este 28 Este 0 -- -- 74
2020-06-30 14:00:00 21.5 20 Este 28 Este 0 -- -- 75
2020-06-30 13:00:00 21 23 Este 28 Este 0 -- -- 77
2020-06-30 12:00:00 20.9 22 Este 27 Este 0 -- -- 77
2020-06-30 11:00:00 20.6 19 Este 26 Este 0 -- -- 76
2020-06-30 10:00:00 20.1 13 Este 19 Este 0 -- -- 77
2020-06-30 09:00:00 19.6 12 Este 17 Este 0 -- -- 80
2020-06-30 08:00:00 18.8 8 Este 12 Este 0 -- -- 80
2020-06-30 07:00:00 16 7 Sudeste 9 Sudeste 0 -- -- 89
2020-06-30 06:00:00 15.5 3 Este 5 Este 0 -- -- 89
2020-06-30 05:00:00 15.4 0 Calma 5 Sudeste 0 -- -- 89
2020-06-30 04:00:00 16.2 0 Calma 4 Sudoeste 0 -- -- 87
2020-06-30 03:00:00 16.2 2 Oeste 6 Sur 0 -- -- 87
2020-06-30 02:00:00 15.9 6 Sudeste 10 Sudeste 0 -- -- 87
2020-06-30 01:00:00 16.3 7 Sudeste 12 Sudeste 0 -- -- 85
2020-06-30 00:00:00 16.5 7 Sudeste 11 Sudeste 0 -- -- 86
2020-06-29 23:00:00 16.8 5 Sudeste 11 Sudeste 0 -- -- 85
2020-06-29 22:00:00 17.3 7 Sudeste 14 Sudeste 0 -- -- 82
2020-06-29 21:00:00 18.9 9 Sudeste 14 Este 0 -- -- 76
2020-06-29 20:00:00 19.4 10 Este 14 Este 0 -- -- 74
2020-06-29 19:00:00 19.5 9 Este 13 Este 0 -- -- 73
2020-06-29 18:00:00 19.8 8 Nordeste 13 Este 0 -- -- 71
2020-06-29 17:00:00 19.9 8 Nordeste 12 Nordeste 0 -- -- 70
2020-06-29 16:00:00 20.1 6 Nordeste 10 Nordeste 0 -- -- 71
2020-06-29 15:00:00 19.7 6 Nordeste 12 Norte 0 -- -- 73
2020-06-29 14:00:00 19.3 4 Noroeste 13 Noroeste 0 -- -- 73
2020-06-29 13:00:00 18.5 5 Noroeste 13 Noroeste 0 -- -- 79
2020-06-29 12:00:00 18.1 6 Noroeste 12 Noroeste 0 -- -- 80
2020-06-29 11:00:00 17.7 3 Noroeste 15 Noroeste 0 -- -- 84
2020-06-29 10:00:00 17.5 9 Noroeste 21 Noroeste 0 -- -- 84
2020-06-29 09:00:00 17.4 16 Noroeste 26 Noroeste 0 -- -- 85
2020-06-29 08:00:00 17.6 19 Noroeste 27 Noroeste 0 -- -- 81
2020-06-29 07:00:00 17.6 23 Oeste 29 Oeste 0 -- -- 85
2020-06-29 06:00:00 17.6 23 Oeste 32 Oeste 0 -- -- 87
2020-06-29 05:00:00 17.6 27 Noroeste 37 Oeste 0 -- -- 87
2020-06-29 04:00:00 17.8 28 Oeste 38 Oeste 0 -- -- 90
2020-06-29 03:00:00 17.8 29 Oeste 38 Oeste 0 -- -- 90
2020-06-29 02:00:00 18 30 Oeste 39 Oeste 0 -- -- 98
2020-06-29 01:00:00 18.5 29 Oeste 38 Oeste 0 -- -- 95
2020-06-29 00:00:00 18.5 19 Oeste 42 Oeste 0 -- -- 94
2020-06-28 23:00:00 19.4 32 Oeste 39 Oeste 0 -- -- 89
2020-06-28 22:00:00 19.8 22 Oeste 29 Oeste 0 -- -- 86
2020-06-28 21:00:00 20 23 Oeste 29 Oeste 0 -- -- 83
2020-06-28 20:00:00 20.5 21 Oeste 30 Oeste 0 -- -- 81
2020-06-28 19:00:00 21.9 26 Oeste 33 Oeste 0 -- -- 76
2020-06-28 18:00:00 22.3 13 Oeste 18 Oeste 0 -- -- 76
2020-06-28 17:00:00 22.2 6 Este 15 Este 0 -- -- 78
2020-06-28 16:00:00 22.1 12 Este 19 Este 0 -- -- 78
2020-06-28 15:00:00 21.8 15 Este 26 Este 0 -- -- 79
2020-06-28 14:00:00 21.6 18 Este 26 Este 0 -- -- 80
2020-06-28 13:00:00 20.6 18 Este 23 Este 0 -- -- 85
2020-06-28 12:00:00 21.1 16 Este 23 Este 0 -- -- 82
2020-06-28 11:00:00 20.6 13 Este 20 Sudeste 0 -- -- 83
2020-06-28 10:00:00 18.6 3 Oeste 9 Noroeste 0 -- -- 88
2020-06-28 09:00:00 18.3 4 Sudeste 7 Sudeste 0 -- -- 88
2020-06-28 08:00:00 18.1 3 Oeste 12 Oeste 0 -- -- 91
2020-06-28 07:00:00 17.8 10 Oeste 13 Oeste 0 -- -- 92
2020-06-28 06:00:00 17.4 0 Calma 21 Oeste 0 -- -- 92
2020-06-28 05:00:00 17.7 17 Oeste 27 Oeste 0 -- -- 94
2020-06-28 04:00:00 18 17 Oeste 30 Oeste 0 -- -- 92
2020-06-28 03:00:00 18.2 19 Oeste 30 Oeste 0 -- -- 90
2020-06-28 02:00:00 18.3 25 Oeste 32 Oeste 0 -- -- 91
2020-06-28 01:00:00 18.4 27 Oeste 34 Oeste 0 -- -- 90
2020-06-28 00:00:00 18.7 29 Oeste 33 Oeste 0 -- -- 91
2020-06-27 23:00:00 18.9 20 Oeste 29 Noroeste 0 -- -- 91
2020-06-27 22:00:00 19.2 23 Noroeste 32 Noroeste 0 -- -- 93
2020-06-27 21:00:00 21.2 6 Norte 17 Sudeste 0 -- -- 85
2020-06-27 20:00:00 23 12 Sudeste 19 Sudeste 0 -- -- 67
2020-06-27 19:00:00 22.9 12 Sudeste 21 Sudeste 0 -- -- 73
2020-06-27 18:00:00 23.1 13 Sudeste 20 Sudeste 0 -- -- 68
2020-06-27 17:00:00 23.2 14 Sudeste 22 Este 0 -- -- 71
2020-06-27 16:00:00 22.8 13 Sudeste 21 Sudeste 0 -- -- 75
2020-06-27 15:00:00 23.1 12 Este 17 Sudeste 0 -- -- 72
2020-06-27 14:00:00 23.4 11 Este 16 Este 0 -- -- 66
2020-06-27 13:00:00 23.3 11 Este 16 Este 0 -- -- 66
2020-06-27 12:00:00 22.8 9 Este 12 Este 0 -- -- 62
2020-06-27 11:00:00 22.3 5 Nordeste 9 Nordeste 0 -- -- 68
2020-06-27 10:00:00 20.8 2 Noroeste 9 Sudoeste 0 -- -- 75
2020-06-27 09:00:00 19.6 8 Oeste 9 Sudoeste 0 -- -- 77
2020-06-27 08:00:00 19 3 Noroeste 13 Sudoeste 0 -- -- 80
2020-06-27 07:00:00 17.5 4 Sudoeste 14 Sudeste 0 -- -- 81
2020-06-27 06:00:00 17.2 9 Sudeste 13 Sudeste 0 -- -- 75
2020-06-27 05:00:00 15.6 5 Sudeste 10 Sur 0 -- -- 88
2020-06-27 04:00:00 16.5 8 Oeste 13 Sudeste 0 -- -- 92
2020-06-27 03:00:00 16.4 13 Sudeste 24 Sudeste 0 -- -- 96
2020-06-27 02:00:00 15.8 13 Sudeste 20 Sudeste 0 -- -- 97
2020-06-27 01:00:00 15.7 0 Calma 15 Sur 0 -- -- 96
2020-06-27 00:00:00 16.2 11 Sudeste 15 Este 0 -- -- 96
2020-06-26 23:00:00 16.1 6 Sudoeste 10 Sudoeste 0 -- -- 95
2020-06-26 22:00:00 17.3 0 Calma 12 Este 0 -- -- 93
2020-06-26 21:00:00 17.5 8 Este 16 Sudeste 0 -- -- 93
2020-06-26 20:00:00 17.2 8 Oeste 17 Oeste 0 -- -- 96
2020-06-26 19:00:00 17 12 Oeste 17 Oeste 0 -- -- 95
2020-06-26 18:00:00 17.4 10 Oeste 19 Sudoeste 0 -- -- 93
2020-06-26 17:00:00 17.5 13 Oeste 22 Oeste 0 -- -- 94
2020-06-26 16:00:00 17.9 14 Oeste 18 Oeste 0 -- -- 89
2020-06-26 15:00:00 18.9 6 Oeste 15 Oeste 0 -- -- 88
2020-06-26 14:00:00 18.1 12 Oeste 15 Oeste 0 -- -- 95
2020-06-26 13:00:00 17.1 5 Oeste 17 Oeste 0 -- -- 100
2020-06-26 12:00:00 16.6 12 Oeste 17 Noroeste 0.2 -- -- 100
2020-06-26 11:00:00 16.5 8 Oeste 22 Oeste 0.4 -- -- 100
2020-06-26 10:00:00 16.4 13 Oeste 25 Oeste 0.2 -- -- 100
2020-06-26 09:00:00 16.3 18 Oeste 26 Oeste 0.2 -- -- 100
2020-06-26 08:00:00 16.4 20 Oeste 25 Oeste 0.4 -- -- 100
2020-06-26 07:00:00 16.3 19 Oeste 33 Oeste 0 -- -- 99
2020-06-26 06:00:00 16.3 17 Oeste 26 Sudoeste 0 -- -- 99
2020-06-26 05:00:00 16.7 23 Oeste 28 Oeste 0 -- -- 97
2020-06-26 04:00:00 16.7 17 Oeste 23 Oeste 0.2 -- -- 97
2020-06-26 03:00:00 16.9 18 Oeste 38 Oeste 0 -- -- 98
2020-06-26 02:00:00 17.2 28 Oeste 41 Oeste 0 -- -- 96
2020-06-26 01:00:00 17.4 30 Oeste 42 Oeste 0 -- -- 95
2020-06-26 00:00:00 17.4 26 Oeste 35 Oeste 0 -- -- 94
2020-06-25 23:00:00 17.1 11 Oeste 32 Oeste 0 -- -- 94
2020-06-25 22:00:00 17.4 22 Oeste 29 Oeste 0 -- -- 96
2020-06-25 21:00:00 17.1 20 Oeste 31 Oeste 0.4 -- -- 97
2020-06-25 20:00:00 17.1 22 Oeste 45 Oeste 0.2 -- -- 97
2020-06-25 19:00:00 17.7 36 Oeste 45 Oeste 0.4 -- -- 95
2020-06-25 18:00:00 18 18 Oeste 40 Oeste 0 -- -- 95
2020-06-25 17:00:00 17.8 20 Este 35 Sudeste 0.4 -- -- 95
2020-06-25 16:00:00 17.7 35 Oeste 55 Oeste 0 -- -- 92
2020-06-25 15:00:00 18.2 45 Oeste 58 Oeste 0 -- -- 90
2020-06-25 14:00:00 18.4 35 Oeste 48 Oeste 0 -- -- 91
2020-06-25 13:00:00 18.3 28 Oeste 40 Oeste 0 -- -- 91
2020-06-25 12:00:00 18.8 19 Oeste 30 Oeste 0 -- -- 90
2020-06-25 11:00:00 18.2 30 Oeste 61 Oeste 0 -- -- 93
2020-06-25 10:00:00 18 45 Oeste 55 Oeste 0 -- -- 92
2020-06-25 09:00:00 18.8 16 Oeste 39 Oeste 0 -- -- 91
2020-06-25 08:00:00 17.7 29 Oeste 55 Oeste 0 -- -- 95
2020-06-25 07:00:00 17.9 37 Oeste 47 Oeste 0 -- -- 96
2020-06-25 06:00:00 18.9 16 Oeste 21 Noroeste 0 -- -- 97
2020-06-25 05:00:00 19 3 Nordeste 31 Sudeste 0 -- -- 94
2020-06-25 04:00:00 19.2 19 Sudeste 26 Sudeste 0 -- -- 88
2020-06-25 03:00:00 18.6 6 Sur 17 Sudoeste 0 -- -- 88
2020-06-25 02:00:00 18.1 8 Sudoeste 15 Sudoeste 0 -- -- 93
2020-06-25 01:00:00 19.3 4 Oeste 12 Sudoeste 0 -- -- 87
2020-06-25 00:00:00 19.5 6 Sudoeste 14 Sudeste 0 -- -- 86
2020-06-24 23:00:00 18.5 6 Sur 45 Oeste 0 -- -- 91
2020-06-24 22:00:00 18.2 35 Oeste 51 Oeste 0 -- -- 95
2020-06-24 21:00:00 18.2 49 Oeste 64 Oeste 0 -- -- 95
2020-06-24 20:00:00 18.8 36 Oeste 49 Oeste 0 -- -- 93
2020-06-24 19:00:00 18.3 40 Oeste 58 Oeste 0 -- -- 96
2020-06-24 18:00:00 19.2 25 Oeste 33 Oeste 0 -- -- 92
2020-06-24 17:00:00 19.3 22 Oeste 28 Oeste 0 -- -- 93
2020-06-24 16:00:00 19.7 22 Oeste 30 Oeste 0 -- -- 93
2020-06-24 15:00:00 19.4 23 Oeste 32 Oeste 0 -- -- 93
2020-06-24 14:00:00 18.8 27 Oeste 35 Oeste 0 -- -- 95
2020-06-24 13:00:00 18.5 28 Oeste 43 Oeste 0 -- -- 96
2020-06-24 12:00:00 18.3 33 Oeste 43 Oeste 0 -- -- 97
2020-06-24 11:00:00 18.9 33 Oeste 40 Oeste 0 -- -- 93
2020-06-24 10:00:00 20.3 19 Oeste 38 Oeste 0 -- -- 91
2020-06-24 09:00:00 19.3 31 Oeste 43 Sudoeste 0 -- -- 92
2020-06-24 08:00:00 19.4 25 Oeste 33 Oeste 0 -- -- 92
2020-06-24 07:00:00 19.1 15 Sudoeste 20 Oeste 0 -- -- 91
2020-06-24 06:00:00 21.6 6 Sudoeste 12 Sudeste 0 -- -- 81
2020-06-24 05:00:00 19.7 5 Sudoeste 15 Este 0 -- -- 85
2020-06-24 04:00:00 19.7 8 Sur 12 Sudoeste 0 -- -- 84
2020-06-24 03:00:00 20.5 6 Sudoeste 9 Sudoeste 0 -- -- 80
2020-06-24 02:00:00 20.2 7 Sudoeste 13 Sudoeste 0 -- -- 82
2020-06-24 01:00:00 20.7 8 Oeste 12 Sudoeste 0 -- -- 77
2020-06-24 00:00:00 21 0 Calma 14 Este 0 -- -- 74
2020-06-23 23:00:00 22.8 10 Este 24 Sudeste 0 -- -- 65
2020-06-23 22:00:00 22.7 15 Sudeste 30 Sudeste 0 -- -- 65
2020-06-23 21:00:00 23.3 17 Sudeste 31 Este 0 -- -- 64
2020-06-23 20:00:00 23.3 21 Sudeste 37 Este 0 -- -- 66
2020-06-23 19:00:00 23 22 Sudeste 36 Este 0 -- -- 69
2020-06-23 18:00:00 23 22 Sudeste 38 Este 0 -- -- 73
2020-06-23 17:00:00 23 22 Este 36 Este 0 -- -- 75
2020-06-23 16:00:00 23.3 25 Este 40 Sudeste 0 -- -- 71
2020-06-23 15:00:00 22.9 22 Este 33 Este 0 -- -- 70
2020-06-23 14:00:00 21.6 21 Este 31 Este 0 -- -- 79
2020-06-23 13:00:00 21.5 19 Este 30 Sudeste 0 -- -- 82
2020-06-23 12:00:00 21.2 18 Este 29 Este 0 -- -- 81
2020-06-23 11:00:00 20.4 22 Este 31 Este 0 -- -- 83
2020-06-23 10:00:00 20 24 Este 32 Este 0 -- -- 83
2020-06-23 09:00:00 19.8 19 Este 28 Este 0 -- -- 81
2020-06-23 08:00:00 19.5 16 Este 26 Sudeste 0 -- -- 81
2020-06-23 07:00:00 17.9 14 Este 24 Este 0 -- -- 83
2020-06-23 06:00:00 17.6 14 Sudeste 24 Este 0 -- -- 83
2020-06-23 05:00:00 17.7 13 Sudeste 20 Este 0 -- -- 79
2020-06-23 04:00:00 18 12 Este 22 Este 0 -- -- 76
2020-06-23 03:00:00 18.5 15 Este 24 Este 0 -- -- 74
2020-06-23 02:00:00 18 13 Sudeste 26 Este 0 -- -- 81
2020-06-23 01:00:00 17.8 17 Sudeste 31 Este 0 -- -- 91
2020-06-23 00:00:00 18 21 Este 31 Este 0 -- -- 91
2020-06-22 23:00:00 18.2 23 Este 35 Este 0 -- -- 92
2020-06-22 22:00:00 18.4 27 Este 35 Este 0 -- -- 90
2020-06-22 21:00:00 18.9 27 Este 34 Este 0 -- -- 87
2020-06-22 20:00:00 19.7 26 Este 33 Este 0 -- -- 84
2020-06-22 19:00:00 20 27 Este 32 Este 0 -- -- 82
2020-06-22 18:00:00 20.2 26 Este 32 Este 0 -- -- 81
2020-06-22 17:00:00 20.3 26 Este 32 Este 0 -- -- 82
2020-06-22 16:00:00 20.7 25 Este 32 Este 0 -- -- 81
2020-06-22 15:00:00 20.8 26 Este 31 Este 0 -- -- 82
2020-06-22 14:00:00 20.9 22 Este 28 Este 0 -- -- 82
2020-06-22 13:00:00 20.5 22 Este 28 Este 0 -- -- 85
2020-06-22 12:00:00 20 23 Este 26 Este 0 -- -- 85
2020-06-22 11:00:00 20 17 Este 19 Este 0 -- -- 84
2020-06-22 10:00:00 20.3 12 Este 18 Este 0 -- -- 85
2020-06-22 09:00:00 18.5 9 Sudeste 15 Este 0 -- -- 93
2020-06-22 08:00:00 17.6 8 Este 12 Este 0 -- -- 96
2020-06-22 07:00:00 17.5 8 Nordeste 10 Nordeste 0 -- -- 96
2020-06-22 06:00:00 17.4 3 Noroeste 8 Oeste 0 -- -- 97
2020-06-22 05:00:00 17.5 0 Calma 5 Norte 0 -- -- 96
2020-06-22 04:00:00 16.7 0 Calma 5 Nordeste 0 -- -- 87
2020-06-22 03:00:00 17.7 3 Noroeste 7 Sur 0 -- -- 82
2020-06-22 02:00:00 17.4 4 Sur 8 Oeste 0 -- -- 84
2020-06-22 01:00:00 18.4 6 Oeste 11 Oeste 0 -- -- 80
2020-06-22 00:00:00 18.6 6 Oeste 9 Oeste 0 -- -- 80
2020-06-21 23:00:00 18.8 5 Oeste 9 Oeste 0 -- -- 79
2020-06-21 22:00:00 18.8 6 Sur 9 Sudeste 0 -- -- 76
2020-06-21 21:00:00 20.2 0 Calma 8 Noroeste 0 -- -- 68
2020-06-21 20:00:00 21.3 5 Noroeste 13 Oeste 0 -- -- 63
2020-06-21 19:00:00 21.1 7 Oeste 23 Oeste 0 -- -- 66
2020-06-21 18:00:00 20.7 15 Oeste 23 Oeste 0 -- -- 76
2020-06-21 17:00:00 20.2 18 Oeste 24 Oeste 0 -- -- 81
2020-06-21 16:00:00 19.9 19 Oeste 27 Oeste 0 -- -- 80
2020-06-21 15:00:00 19.5 20 Oeste 23 Oeste 0 -- -- 82
2020-06-21 14:00:00 19.2 20 Oeste 26 Oeste 0 -- -- 83
2020-06-21 13:00:00 18.8 17 Oeste 20 Oeste 0 -- -- 83
2020-06-21 12:00:00 19.1 10 Oeste 14 Oeste 0 -- -- 84
2020-06-21 11:00:00 19 6 Oeste 10 Oeste 0 -- -- 83
2020-06-21 10:00:00 19.3 8 Este 18 Este 0 -- -- 81
2020-06-21 09:00:00 18.9 12 Este 17 Este 0 -- -- 83
2020-06-21 08:00:00 18.4 5 Este 7 Este 0 -- -- 81
2020-06-21 07:00:00 15.3 0 Calma 6 Este 0 -- -- 89
2020-06-21 06:00:00 14.9 0 Calma 6 Este 0 -- -- 85
2020-06-21 05:00:00 15.6 3 Este 8 Sudeste 0 -- -- 85
2020-06-21 04:00:00 15.5 3 Sudeste 8 Sudoeste 0 -- -- 83
2020-06-21 03:00:00 15.8 2 Sudoeste 17 Sudeste 0 -- -- 81
2020-06-21 02:00:00 16.5 10 Sudeste 17 Sudeste 0 -- -- 81
2020-06-21 01:00:00 16.5 7 Sudeste 16 Sudeste 0 -- -- 82
2020-06-21 00:00:00 16.7 9 Sudeste 15 Sudeste 0 -- -- 84
2020-06-20 23:00:00 16.6 7 Sudeste 14 Este 0 -- -- 85
2020-06-20 22:00:00 16.9 8 Este 13 Este 0 -- -- 85
2020-06-20 21:00:00 18.8 10 Este 20 Este 0 -- -- 80
2020-06-20 20:00:00 19.4 14 Este 23 Este 0 -- -- 77
2020-06-20 19:00:00 19.5 18 Este 26 Este 0 -- -- 77
2020-06-20 18:00:00 19.6 21 Este 29 Este 0 -- -- 76
2020-06-20 17:00:00 19.8 22 Este 28 Este 0 -- -- 79
2020-06-20 16:00:00 19.8 22 Este 28 Este 0 -- -- 79
2020-06-20 15:00:00 19.4 22 Este 25 Este 0 -- -- 82
2020-06-20 14:00:00 19.5 20 Este 25 Este 0 -- -- 81
2020-06-20 13:00:00 19.6 20 Este 24 Este 0 -- -- 78
2020-06-20 12:00:00 19.2 17 Este 21 Este 0 -- -- 79
2020-06-20 11:00:00 19.1 14 Este 21 Este 0 -- -- 79
2020-06-20 10:00:00 18.8 14 Este 21 Este 0 -- -- 76
2020-06-20 09:00:00 18.5 9 Este 14 Este 0 -- -- 78
2020-06-20 08:00:00 17.8 6 Este 11 Este 0 -- -- 81
2020-06-20 07:00:00 15.4 7 Sudeste 10 Sudeste 0 -- -- 87
2020-06-20 06:00:00 14.8 7 Sudeste 11 Sudeste 0 -- -- 89
2020-06-20 05:00:00 14.8 6 Sudeste 10 Sudeste 0 -- -- 90
2020-06-20 04:00:00 14.7 6 Sudeste 8 Sudeste 0 -- -- 90
2020-06-20 03:00:00 14.6 5 Sudeste 6 Sudeste 0 -- -- 89
2020-06-20 02:00:00 14.5 4 Sudeste 5 Sudeste 0 -- -- 89
2020-06-20 01:00:00 14.6 2 Sudeste 5 Sudeste 0 -- -- 87
2020-06-20 00:00:00 14.6 4 Sudeste 5 Sudeste 0 -- -- 86
2020-06-19 23:00:00 15.1 0 Calma 3 Norte 0 -- -- 84
2020-06-19 22:00:00 16.3 2 Noroeste 5 Norte 0 -- -- 79
2020-06-19 21:00:00 18.2 3 Norte 9 Nordeste 0 -- -- 75
2020-06-19 20:00:00 18.6 7 Nordeste 12 Norte 0 -- -- 75
2020-06-19 19:00:00 18.9 8 Nordeste 15 Nordeste 0 -- -- 75
2020-06-19 18:00:00 19 10 Nordeste 14 Nordeste 0 -- -- 76
2020-06-19 17:00:00 19.3 8 Nordeste 13 Norte 0 -- -- 74
2020-06-19 16:00:00 19.1 8 Nordeste 13 Nordeste 0 -- -- 73
2020-06-19 15:00:00 19.2 9 Nordeste 15 Nordeste 0 -- -- 75
2020-06-19 14:00:00 18.8 10 Nordeste 14 Nordeste 0 -- -- 75
2020-06-19 13:00:00 18.9 10 Nordeste 13 Nordeste 0 -- -- 76
2020-06-19 12:00:00 17.6 6 Nordeste 10 Nordeste 0 -- -- 81
2020-06-19 11:00:00 17.9 7 Nordeste 12 Nordeste 0 -- -- 79
2020-06-19 10:00:00 18 7 Nordeste 10 Este 0 -- -- 78
2020-06-19 09:00:00 16.3 7 Este 14 Este 0 -- -- 86
2020-06-19 08:00:00 15.6 7 Sudeste 12 Sudeste 0 -- -- 87
2020-06-19 07:00:00 14.3 7 Este 11 Este 0 -- -- 89
2020-06-19 06:00:00 14 4 Este 7 Este 0 -- -- 90
2020-06-19 05:00:00 14.2 4 Sudeste 6 Sudeste 0 -- -- 88
2020-06-19 04:00:00 13.9 4 Este 7 Sudeste 0 -- -- 88
2020-06-19 03:00:00 14.3 5 Sudeste 9 Sudeste 0 -- -- 87
2020-06-19 02:00:00 13.7 4 Este 5 Este 0 -- -- 89
2020-06-19 01:00:00 13.9 4 Sudeste 9 Sudeste 0 -- -- 86
2020-06-19 00:00:00 14.4 7 Sudeste 11 Sur 0 -- -- 85
2020-06-18 23:00:00 14.5 7 Sudeste 12 Sudeste 0 -- -- 87
2020-06-18 22:00:00 14.6 5 Este 7 Sudeste 0 -- -- 86
2020-06-18 21:00:00 16.4 4 Nordeste 7 Nordeste 0 -- -- 79
2020-06-18 20:00:00 17 3 Nordeste 8 Nordeste 0 -- -- 79
2020-06-18 19:00:00 17.6 4 Norte 10 Noroeste 0 -- -- 73
2020-06-18 18:00:00 18.2 9 Noroeste 15 Noroeste 0 -- -- 71
2020-06-18 17:00:00 18.3 13 Noroeste 22 Noroeste 0 -- -- 68
2020-06-18 16:00:00 17.6 18 Noroeste 26 Oeste 0 -- -- 75
2020-06-18 15:00:00 17 17 Oeste 25 Oeste 0 -- -- 72
2020-06-18 14:00:00 16.5 19 Oeste 30 Oeste 0 -- -- 79
2020-06-18 13:00:00 16.2 24 Oeste 32 Oeste 0 -- -- 84
2020-06-18 12:00:00 16.4 26 Oeste 32 Oeste 0 -- -- 78
2020-06-18 11:00:00 16.6 19 Oeste 27 Oeste 0.2 -- -- 79
2020-06-18 10:00:00 15.9 15 Oeste 24 Oeste 0 -- -- 79
2020-06-18 09:00:00 15 12 Sudoeste 27 Sudoeste 0 -- -- 84
2020-06-18 08:00:00 13.9 14 Sudoeste 25 Sudoeste 0 -- -- 89
2020-06-18 07:00:00 13 8 Sudoeste 24 Oeste 0 -- -- 94
2020-06-18 06:00:00 13.1 15 Oeste 25 Oeste 0.2 -- -- 96
2020-06-18 05:00:00 13.3 16 Oeste 32 Oeste 2 -- -- 96
2020-06-18 04:00:00 13.6 21 Oeste 37 Oeste 3.6 -- -- 95
2020-06-18 03:00:00 14.7 29 Oeste 35 Oeste 0 -- -- 93
2020-06-18 02:00:00 14.5 9 Oeste 15 Oeste 0 -- -- 91
2020-06-18 01:00:00 14.5 11 Oeste 18 Sudoeste 0 -- -- 89
2020-06-18 00:00:00 14.2 7 Oeste 11 Sudoeste 0 -- -- 91
2020-06-17 23:00:00 14.6 4 Sudoeste 15 Oeste 0 -- -- 89
2020-06-17 22:00:00 15.4 13 Oeste 21 Oeste 0 -- -- 83
2020-06-17 21:00:00 15.6 17 Oeste 24 Oeste 0 -- -- 85
2020-06-17 20:00:00 15.8 17 Oeste 29 Oeste 0 -- -- 85
2020-06-17 19:00:00 15.9 25 Oeste 39 Oeste 0 -- -- 85
2020-06-17 18:00:00 16.9 33 Oeste 41 Oeste 0 -- -- 81
2020-06-17 17:00:00 16.5 34 Oeste 46 Oeste 0 -- -- 84
2020-06-17 16:00:00 16.2 35 Oeste 48 Oeste 0 -- -- 84
2020-06-17 15:00:00 16.5 38 Oeste 50 Oeste 0 -- -- 82
2020-06-17 14:00:00 16.2 42 Oeste 53 Oeste 0 -- -- 83
2020-06-17 13:00:00 16.1 46 Oeste 58 Oeste 0 -- -- 85
2020-06-17 12:00:00 15 39 Oeste 55 Oeste 0.6 -- -- 87
2020-06-17 11:00:00 14.5 37 Oeste 56 Oeste 0.4 -- -- 89
2020-06-17 10:00:00 15.4 31 Oeste 59 Oeste 0 -- -- 84
2020-06-17 09:00:00 15.3 23 Oeste 41 Oeste 0 -- -- 85
2020-06-17 08:00:00 13.9 19 Oeste 53 Oeste 1.8 -- -- 94
2020-06-17 07:00:00 14.5 23 Oeste 45 Oeste 0 -- -- 85
2020-06-17 06:00:00 14.4 20 Oeste 35 Sudoeste 0 -- -- 87
2020-06-17 05:00:00 14.2 22 Oeste 41 Oeste 0 -- -- 88
2020-06-17 04:00:00 14.6 22 Oeste 36 Oeste 0 -- -- 89
2020-06-17 03:00:00 14.6 21 Oeste 52 Oeste 0.2 -- -- 89
2020-06-17 02:00:00 14.8 25 Oeste 55 Oeste 0.2 -- -- 89
2020-06-17 01:00:00 14.6 37 Oeste 53 Oeste 1.2 -- -- 91
2020-06-17 00:00:00 15.5 42 Oeste 52 Oeste 0 -- -- 87
2020-06-16 23:00:00 15.4 16 Oeste 40 Oeste 0 -- -- 84
2020-06-16 22:00:00 15.6 32 Oeste 55 Oeste 0 -- -- 83
2020-06-16 21:00:00 15.8 35 Oeste 49 Oeste 0 -- -- 82
2020-06-16 20:00:00 16.1 43 Oeste 55 Oeste 0 -- -- 81
2020-06-16 19:00:00 15.8 31 Oeste 49 Oeste 0.2 -- -- 85
2020-06-16 18:00:00 14.4 49 Oeste 63 Oeste 0.6 -- -- 94
2020-06-16 17:00:00 15.3 29 Oeste 39 Oeste 0 -- -- 83
2020-06-16 16:00:00 16.2 22 Oeste 34 Oeste 0 -- -- 77
2020-06-16 15:00:00 16.7 25 Oeste 31 Oeste 0 -- -- 79
2020-06-16 14:00:00 15.4 22 Oeste 37 Noroeste 0 -- -- 86
2020-06-16 13:00:00 15.3 33 Noroeste 41 Noroeste 0 -- -- 93
2020-06-16 12:00:00 18.1 7 Noroeste 14 Noroeste 0 -- -- 76
2020-06-16 11:00:00 18.5 4 Nordeste 11 Nordeste 0 -- -- 72
2020-06-16 10:00:00 17.2 9 Oeste 13 Oeste 0 -- -- 81
2020-06-16 09:00:00 16.9 2 Noroeste 10 Sudeste 0 -- -- 78
2020-06-16 08:00:00 14.8 10 Sudeste 17 Oeste 0 -- -- 84
2020-06-16 07:00:00 14.6 8 Sudoeste 15 Oeste 0 -- -- 84
2020-06-16 06:00:00 14.4 5 Oeste 9 Oeste 0 -- -- 85
2020-06-16 05:00:00 13.9 6 Oeste 7 Oeste 0 -- -- 89
2020-06-16 04:00:00 14.3 4 Noroeste 6 Noroeste 0.2 -- -- 87
2020-06-16 03:00:00 14.2 5 Sur 13 Oeste 0.4 -- -- 87
2020-06-16 02:00:00 15.1 9 Oeste 12 Oeste 0 -- -- 83
2020-06-16 01:00:00 14.6 4 Sur 21 Sudoeste 0 -- -- 86
2020-06-16 00:00:00 14.9 15 Sudoeste 26 Sudoeste 0 -- -- 84
2020-06-15 23:00:00 14.5 20 Oeste 30 Oeste 0.2 -- -- 86
2020-06-15 22:00:00 15.1 23 Oeste 44 Oeste 0.2 -- -- 92
2020-06-15 21:00:00 16.7 25 Oeste 31 Oeste 0 -- -- 76
2020-06-15 20:00:00 17.8 19 Oeste 26 Oeste 0 -- -- 72
2020-06-15 19:00:00 18.2 15 Oeste 21 Oeste 0 -- -- 69
2020-06-15 18:00:00 18.8 12 Noroeste 18 Oeste 0 -- -- 66
2020-06-15 17:00:00 20.3 6 Noroeste 11 Noroeste 0 -- -- 62
2020-06-15 16:00:00 20.3 5 Noroeste 10 Nordeste 0 -- -- 68
2020-06-15 15:00:00 19.4 5 Norte 9 Norte 0 -- -- 68
2020-06-15 14:00:00 19.8 4 Nordeste 13 Noroeste 0 -- -- 66
2020-06-15 13:00:00 19.7 7 Sudeste 14 Este 0 -- -- 67
2020-06-15 12:00:00 18 2 Nordeste 5 Noroeste 0 -- -- 71
2020-06-15 11:00:00 18.2 3 Noroeste 7 Oeste 0 -- -- 71
2020-06-15 10:00:00 16.9 0 Calma 4 Oeste 0 -- -- 79
2020-06-15 09:00:00 15.8 3 Sudeste 9 Sur 0 -- -- 81
2020-06-15 08:00:00 14.7 7 Sur 17 Oeste 0.2 -- -- 85
2020-06-15 07:00:00 15.8 2 Noroeste 13 Sudoeste 0 -- -- 77
2020-06-15 06:00:00 15.9 8 Oeste 18 Sudoeste 0 -- -- 73
2020-06-15 05:00:00 15.7 11 Oeste 23 Sudoeste 0 -- -- 75
2020-06-15 04:00:00 15.5 7 Sudoeste 17 Sudoeste 0 -- -- 79
2020-06-15 03:00:00 15.4 5 Oeste 19 Oeste 0 -- -- 80
2020-06-15 02:00:00 15.4 14 Oeste 24 Oeste 0 -- -- 81
2020-06-15 01:00:00 15.6 17 Oeste 24 Oeste 0 -- -- 82
2020-06-15 00:00:00 15.9 10 Oeste 21 Oeste 0 -- -- 82
2020-06-14 23:00:00 16.4 19 Oeste 26 Oeste 0 -- -- 80
2020-06-14 22:00:00 16.6 17 Oeste 22 Oeste 0 -- -- 73
2020-06-14 21:00:00 17 14 Oeste 22 Oeste 0 -- -- 69
2020-06-14 20:00:00 17.8 12 Oeste 24 Oeste 0 -- -- 66
2020-06-14 19:00:00 18.1 19 Oeste 25 Oeste 0 -- -- 63
2020-06-14 18:00:00 18.8 17 Oeste 29 Noroeste 0 -- -- 64
2020-06-14 17:00:00 18.3 26 Oeste 33 Oeste 0 -- -- 70
2020-06-14 16:00:00 19.3 17 Oeste 24 Oeste 0 -- -- 70
2020-06-14 15:00:00 19.1 10 Oeste 14 Oeste 0 -- -- 67
2020-06-14 14:00:00 18.6 7 Este 15 Este 0 -- -- 73
2020-06-14 13:00:00 19.2 14 Este 17 Este 0 -- -- 71
2020-06-14 12:00:00 19.2 13 Este 18 Este 0 -- -- 72
2020-06-14 11:00:00 18.5 13 Este 17 Este 0 -- -- 72
2020-06-14 10:00:00 18.2 11 Este 19 Este 0 -- -- 72
2020-06-14 09:00:00 17.9 12 Este 23 Este 0 -- -- 71
2020-06-14 08:00:00 17 10 Este 19 Sudeste 0 -- -- 76
2020-06-14 07:00:00 14.6 7 Sudeste 13 Sudeste 0 -- -- 81
2020-06-14 06:00:00 14.6 5 Sudeste 8 Sudeste 0 -- -- 83
2020-06-14 05:00:00 14.6 4 Sudeste 8 Este 0 -- -- 90
2020-06-14 04:00:00 14.7 8 Este 10 Este 0 -- -- 90
2020-06-14 03:00:00 14.9 0 Calma 4 Noroeste 0 -- -- 89
2020-06-14 02:00:00 14.8 0 Calma 4 Noroeste 0 -- -- 88
2020-06-14 01:00:00 14.9 0 Calma 9 Oeste 0 -- -- 85
2020-06-14 00:00:00 14.9 6 Oeste 10 Oeste 0 -- -- 81
2020-06-13 23:00:00 15 5 Oeste 12 Oeste 0 -- -- 79
2020-06-13 22:00:00 14.9 5 Sudoeste 13 Oeste 0 -- -- 79
2020-06-13 21:00:00 15.4 8 Sudoeste 29 Oeste 0.2 -- -- 76
2020-06-13 20:00:00 16.2 16 Oeste 28 Sudoeste 0 -- -- 77
2020-06-13 19:00:00 16.7 17 Oeste 30 Oeste 0 -- -- 76
2020-06-13 18:00:00 16.1 16 Oeste 35 Oeste 0.6 -- -- 82
2020-06-13 17:00:00 17 23 Oeste 31 Oeste 0 -- -- 72
2020-06-13 16:00:00 18.8 14 Noroeste 18 Noroeste 0 -- -- 67
2020-06-13 15:00:00 19.9 11 Noroeste 15 Noroeste 0 -- -- 62
2020-06-13 14:00:00 19.8 6 Noroeste 11 Noroeste 0 -- -- 65
2020-06-13 13:00:00 18.2 3 Noroeste 7 Noroeste 0 -- -- 68
2020-06-13 12:00:00 17.2 4 Oeste 20 Oeste 0 -- -- 68
2020-06-13 11:00:00 16.1 6 Sudoeste 18 Oeste 0 -- -- 70
2020-06-13 10:00:00 16.1 10 Oeste 28 Sudoeste 0 -- -- 68
2020-06-13 09:00:00 15.3 8 Sudoeste 26 Sudoeste 0 -- -- 71
2020-06-13 08:00:00 14.7 12 Sudoeste 39 Sudoeste 0.2 -- -- 73
2020-06-13 07:00:00 14 13 Sudoeste 35 Sudoeste 0 -- -- 78
2020-06-13 06:00:00 15.1 15 Sudoeste 33 Sudoeste 0 -- -- 69
2020-06-13 05:00:00 14.9 16 Oeste 32 Sudoeste 0 -- -- 72
2020-06-13 04:00:00 14.3 8 Oeste 26 Sudoeste 0 -- -- 81
2020-06-13 03:00:00 14.3 15 Oeste 27 Sudoeste 0.2 -- -- 83
2020-06-13 02:00:00 14.2 15 Oeste 25 Oeste 0 -- -- 76
2020-06-13 01:00:00 13.8 12 Oeste 15 Oeste 0 -- -- 72
2020-06-13 00:00:00 13.5 3 Noroeste 12 Sudeste 0 -- -- 76
2020-06-12 23:00:00 12.9 4 Sudeste 10 Sur 0 -- -- 73
2020-06-12 22:00:00 12.1 3 Sudeste 13 Sudeste 0 -- -- 76
2020-06-12 21:00:00 15.1 5 Oeste 14 Oeste 0 -- -- 71
2020-06-12 20:00:00 14.4 9 Oeste 27 Sudoeste 0 -- -- 77
2020-06-12 19:00:00 13.2 18 Oeste 40 Oeste 0 -- -- 84
2020-06-12 18:00:00 12.6 35 Oeste 87 Oeste 4.8 -- -- 95
2020-06-12 17:00:00 15.7 41 Oeste 53 Oeste 0 -- -- 75
2020-06-12 16:00:00 15.7 43 Oeste 62 Oeste 0 -- -- 73
2020-06-12 15:00:00 16 48 Oeste 68 Oeste 0 -- -- 70
2020-06-12 14:00:00 16.2 57 Oeste 69 Oeste 0 -- -- 65
2020-06-12 13:00:00 15.7 48 Oeste 65 Oeste 0 -- -- 69
2020-06-12 12:00:00 15.4 33 Oeste 43 Oeste 0 -- -- 67
2020-06-12 11:00:00 16.8 9 Noroeste 14 Oeste 0 -- -- 63
2020-06-12 10:00:00 16.5 3 Norte 13 Sudoeste 0 -- -- 64
2020-06-12 09:00:00 14.2 8 Sudoeste 25 Sudoeste 0 -- -- 68
2020-06-12 08:00:00 14.1 12 Sudoeste 35 Sudoeste 0 -- -- 64
2020-06-12 07:00:00 13.7 19 Sudoeste 56 Sur 0 -- -- 63
2020-06-12 06:00:00 13.7 34 Sur 67 Sur 0 -- -- 61
2020-06-12 05:00:00 14 33 Sudoeste 57 Sudoeste 0 -- -- 61
2020-06-12 04:00:00 10.8 14 Este 24 Este 0 -- -- 88
2020-06-12 03:00:00 11.1 11 Sudeste 30 Sur 0 -- -- 74
2020-06-12 02:00:00 11.2 10 Sur 18 Sur 0 -- -- 69
2020-06-12 01:00:00 10.6 14 Sur 20 Sudeste 0 -- -- 85
2020-06-12 00:00:00 10.5 9 Sur 15 Sur 0 -- -- 86
2020-06-11 23:00:00 11.2 9 Sudoeste 45 Oeste 0 -- -- 86
2020-06-11 22:00:00 12.2 36 Oeste 48 Oeste 2.4 -- -- 85
2020-06-11 21:00:00 12.2 16 Sudoeste 38 Oeste 3.2 -- -- 92
2020-06-11 20:00:00 12.8 32 Oeste 40 Oeste 0.6 -- -- 92
2020-06-11 19:00:00 12.8 12 Sudoeste 33 Oeste 0 -- -- 82
2020-06-11 18:00:00 12.9 19 Oeste 36 Sudoeste 0.2 -- -- 88
2020-06-11 17:00:00 12.7 21 Oeste 48 Oeste 0.8 -- -- 92
2020-06-11 16:00:00 12.7 27 Oeste 65 Oeste 1 -- -- 93
2020-06-11 15:00:00 13 49 Oeste 82 Oeste 3 -- -- 94
2020-06-11 14:00:00 13.5 55 Oeste 72 Oeste 0.6 -- -- 98
2020-06-11 13:00:00 14 52 Oeste 75 Oeste 0.2 -- -- 95
2020-06-11 12:00:00 19.5 12 Sudoeste 26 Sur 0 -- -- 71
2020-06-11 11:00:00 16.9 3 Norte 22 Oeste 0 -- -- 82
2020-06-11 10:00:00 15.7 16 Oeste 24 Oeste 0.2 -- -- 77
2020-06-11 09:00:00 15.3 14 Sudoeste 24 Oeste 0 -- -- 76
2020-06-11 08:00:00 14.4 5 Sur 10 Noroeste 0 -- -- 85
2020-06-11 07:00:00 14 6 Sur 11 Sur 0.2 -- -- 86
2020-06-11 06:00:00 13.8 4 Sur 6 Sur 0 -- -- 89
2020-06-11 05:00:00 13.9 2 Este 9 Sur 0 -- -- 88
2020-06-11 04:00:00 14.1 2 Sur 9 Sudoeste 0 -- -- 86
2020-06-11 03:00:00 14.5 6 Sudoeste 18 Sudoeste 0 -- -- 84
2020-06-11 02:00:00 14.7 10 Sudoeste 18 Sudoeste 0 -- -- 85
2020-06-11 01:00:00 14.8 12 Oeste 18 Sudoeste 0 -- -- 85
2020-06-11 00:00:00 14.9 10 Oeste 17 Oeste 0 -- -- 86